Time;durP1;ratioP1;P1;durP2;ratioP2;P2;SDS_P1;SDS_P2;PMS_P1;PMS_P2;Temp;Humidity;BMP_temperature;BMP_pressure;BME280_temperature;BME280_humidity;BME280_pressure;Samples;Min_cycle;Max_cycle;Signal;HPM_P1;HPM_P2
2022/09/12 00:01:30;;;;;;;13.63;9.33;;;13.40;99.90;;;;;;5033655;28;20168;-72
2022/09/12 00:03:58;;;;;;;14.37;10.13;;;13.40;99.90;;;;;;5033393;28;20191;-72
2022/09/12 00:06:27;;;;;;;13.87;9.07;;;13.30;99.90;;;;;;5033245;28;20446;-72
2022/09/12 00:08:55;;;;;;;14.87;9.20;;;13.30;99.90;;;;;;5032832;28;20466;-72
2022/09/12 00:11:20;;;;;;;14.30;9.60;;;13.40;99.90;;;;;;5033591;28;20485;-72
2022/09/12 00:13:47;;;;;;;16.53;12.10;;;13.40;99.90;;;;;;5033280;28;20545;-72
2022/09/12 00:16:22;;;;;;;17.43;10.43;;;13.30;99.90;;;;;;5033034;28;20191;-72
2022/09/12 00:18:48;;;;;;;17.73;9.17;;;13.30;99.90;;;;;;5033372;28;20437;-72
2022/09/12 00:21:16;;;;;;;15.17;9.90;;;13.30;99.90;;;;;;5032063;28;20451;-72
2022/09/12 00:23:41;;;;;;;15.50;9.30;;;13.20;99.90;;;;;;5033361;28;20410;-72
2022/09/12 00:26:07;;;;;;;19.83;11.17;;;13.20;99.90;;;;;;5033064;28;20524;-72
2022/09/12 00:28:34;;;;;;;18.00;10.17;;;13.20;99.90;;;;;;5033343;28;20195;-72
2022/09/12 00:31:07;;;;;;;12.57;8.43;;;13.10;99.90;;;;;;5033257;28;20167;-72
2022/09/12 00:33:33;;;;;;;13.23;8.87;;;13.10;99.90;;;;;;5032144;28;20441;-72
2022/09/12 00:35:59;;;;;;;13.27;8.43;;;13.10;99.90;;;;;;5033268;28;20823;-72
2022/09/12 00:38:24;;;;;;;17.00;10.60;;;13.10;99.90;;;;;;5033086;28;20410;-72
2022/09/12 00:40:50;;;;;;;15.90;10.07;;;13.00;99.90;;;;;;5033098;28;20179;-72
2022/09/12 00:43:36;;;;;;;17.10;10.17;;;13.00;99.90;;;;;;5033082;28;20539;-72
2022/09/12 00:46:26;;;;;;;13.90;9.60;;;13.00;99.90;;;;;;5032638;28;20195;-72
2022/09/12 00:49:00;;;;;;;13.23;9.30;;;13.00;99.90;;;;;;5032669;28;20935;-72
2022/09/12 00:51:29;;;;;;;18.90;10.97;;;13.00;99.90;;;;;;5032751;28;20417;-72
2022/09/12 00:53:55;;;;;;;18.00;8.90;;;12.90;99.90;;;;;;5032740;28;20774;-72
2022/09/12 00:56:22;;;;;;;14.07;9.87;;;12.90;99.90;;;;;;5032523;28;20409;-72
2022/09/12 00:58:56;;;;;;;18.70;8.80;;;12.90;99.90;;;;;;5032790;28;20416;-72
2022/09/12 01:01:21;;;;;;;15.77;9.23;;;13.00;99.90;;;;;;5032731;28;20446;-72
2022/09/12 01:03:47;;;;;;;12.27;7.40;;;13.00;99.90;;;;;;5032599;28;20414;-72
2022/09/12 01:06:21;;;;;;;15.40;10.10;;;13.00;99.90;;;;;;5032244;28;20203;-72
2022/09/12 01:08:48;;;;;;;19.03;10.57;;;13.00;99.90;;;;;;5031297;28;20171;-72
2022/09/12 01:11:14;;;;;;;14.43;8.20;;;13.00;99.90;;;;;;5032482;28;20406;-72
2022/09/12 01:13:41;;;;;;;16.20;9.87;;;12.90;99.90;;;;;;5032594;28;20537;-72
2022/09/12 01:16:07;;;;;;;15.97;8.83;;;12.80;99.90;;;;;;5032082;28;20472;-72
2022/09/12 01:18:52;;;;;;;13.87;9.10;;;12.80;99.90;;;;;;5032287;28;20422;-72
2022/09/12 01:21:35;;;;;;;13.47;9.30;;;12.90;99.90;;;;;;5032632;28;20410;-72
2022/09/12 01:24:15;;;;;;;18.70;9.50;;;12.90;99.90;;;;;;5032211;28;20765;-72
2022/09/12 01:26:53;;;;;;;14.77;9.93;;;12.90;99.90;;;;;;5031044;28;20454;-72
2022/09/12 01:29:21;;;;;;;17.70;9.57;;;12.90;99.90;;;;;;5030961;28;20456;-72
2022/09/12 01:32:09;;;;;;;12.53;8.10;;;12.80;99.90;;;;;;5032476;28;20758;-72
2022/09/12 01:34:46;;;;;;;13.13;8.30;;;12.80;99.90;;;;;;5032031;28;20898;-72
2022/09/12 01:37:32;;;;;;;16.73;9.90;;;12.80;99.90;;;;;;5032142;28;20797;-72
2022/09/12 01:40:22;;;;;;;13.63;7.90;;;12.90;99.90;;;;;;5032162;28;20402;-72
2022/09/12 01:43:16;;;;;;;12.87;8.17;;;12.80;99.90;;;;;;5032087;28;20520;-72
2022/09/12 01:46:16;;;;;;;12.47;8.37;;;12.80;99.90;;;;;;5031520;28;20450;-72
2022/09/12 01:48:57;;;;;;;16.20;10.13;;;12.70;99.90;;;;;;5031354;28;20410;-72
2022/09/12 01:51:37;;;;;;;16.30;8.60;;;12.60;99.90;;;;;;5032151;28;20425;-72
2022/09/12 01:54:26;;;;;;;18.40;10.03;;;12.60;99.90;;;;;;5031994;28;20761;-72
2022/09/12 01:56:56;;;;;;;13.40;8.63;;;12.60;99.90;;;;;;5032230;28;20402;-72
2022/09/12 01:59:35;;;;;;;18.57;9.23;;;12.60;99.90;;;;;;5032182;28;20398;-72
2022/09/12 02:02:15;;;;;;;11.27;7.90;;;12.60;99.90;;;;;;5031941;28;20402;-72
2022/09/12 02:04:53;;;;;;;16.30;10.23;;;12.50;99.90;;;;;;5031716;28;20475;-72
2022/09/12 02:07:31;;;;;;;19.77;9.90;;;12.50;99.90;;;;;;5031820;28;20402;-72
2022/09/12 02:10:16;;;;;;;14.17;9.47;;;12.50;99.90;;;;;;5031849;28;20398;-72
2022/09/12 02:12:59;;;;;;;14.37;8.70;;;12.50;99.90;;;;;;5031826;28;20425;-72
2022/09/12 02:15:52;;;;;;;16.73;8.97;;;12.50;99.90;;;;;;5030200;28;20484;-72
2022/09/12 02:18:20;;;;;;;13.93;8.60;;;12.50;99.90;;;;;;5031825;28;20398;-72
2022/09/12 02:20:47;;;;;;;13.27;9.57;;;12.50;99.90;;;;;;5031682;28;20830;-72
2022/09/12 02:23:21;;;;;;;12.87;7.00;;;12.50;99.90;;;;;;5031677;28;20497;-72
2022/09/12 02:25:51;;;;;;;15.37;8.07;;;12.50;99.90;;;;;;5031272;28;20527;-72
2022/09/12 02:28:23;;;;;;;15.87;8.90;;;12.40;99.90;;;;;;5031671;28;20418;-72
2022/09/12 02:30:59;;;;;;;13.70;8.53;;;12.40;99.90;;;;;;5032784;28;20417;-72
2022/09/12 02:33:55;;;;;;;21.00;9.20;;;12.40;99.90;;;;;;5035333;28;20412;-72
2022/09/12 02:36:33;;;;;;;16.00;8.70;;;12.40;99.90;;;;;;5035242;28;20879;-72
2022/09/12 02:38:59;;;;;;;15.63;9.80;;;12.50;99.90;;;;;;5035459;28;20768;-71
2022/09/12 02:41:25;;;;;;;12.73;9.13;;;12.50;99.90;;;;;;5035481;28;20498;-72
2022/09/12 02:43:52;;;;;;;20.23;11.60;;;12.40;99.90;;;;;;5035364;28;20179;-72
2022/09/12 02:46:40;;;;;;;11.20;8.77;;;12.50;99.90;;;;;;5033629;28;20461;-72
2022/09/12 02:49:05;;;;;;;19.83;10.43;;;12.40;99.90;;;;;;5035141;28;20414;-72
2022/09/12 02:51:31;;;;;;;22.70;9.30;;;12.40;99.90;;;;;;5034993;28;20433;-72
2022/09/12 02:53:58;;;;;;;18.87;9.07;;;12.40;99.90;;;;;;5035136;28;20167;-72
2022/09/12 02:56:27;;;;;;;14.43;8.47;;;12.40;99.90;;;;;;5034958;28;20488;-72
2022/09/12 02:58:55;;;;;;;21.00;7.67;;;12.40;99.90;;;;;;5035023;28;20414;-71
2022/09/12 03:01:39;;;;;;;15.90;9.50;;;12.30;99.90;;;;;;5035036;28;20434;-72
2022/09/12 03:04:42;;;;;;;17.57;9.90;;;12.30;99.90;;;;;;5034744;28;20426;-72
2022/09/12 03:07:32;;;;;;;20.47;9.93;;;12.20;99.90;;;;;;5034890;28;20454;-72
2022/09/12 03:10:04;;;;;;;28.77;9.70;;;12.10;99.90;;;;;;5034819;28;20421;-72
2022/09/12 03:12:32;;;;;;;8.87;7.00;;;12.10;99.90;;;;;;5034944;28;20406;-72
2022/09/12 03:15:01;;;;;;;16.57;10.83;;;12.10;99.90;;;;;;5033178;28;20449;-72
2022/09/12 03:17:42;;;;;;;18.70;10.90;;;12.20;99.90;;;;;;5034657;28;20493;-72
2022/09/12 03:20:27;;;;;;;17.00;9.10;;;12.20;99.90;;;;;;5034801;28;20410;-71
2022/09/12 03:23:19;;;;;;;16.20;9.97;;;12.30;99.90;;;;;;5034288;28;20500;-72
2022/09/12 03:25:53;;;;;;;13.50;9.83;;;12.20;99.90;;;;;;5033991;28;20468;-72
2022/09/12 03:28:21;;;;;;;15.90;9.87;;;12.30;99.90;;;;;;5034522;28;20407;-72
2022/09/12 03:30:48;;;;;;;17.50;9.47;;;12.20;99.90;;;;;;5034365;28;20430;-72
2022/09/12 03:33:19;;;;;;;17.47;10.67;;;12.20;99.90;;;;;;5034332;28;20402;-72
2022/09/12 03:35:48;;;;;;;20.60;10.30;;;12.20;99.90;;;;;;5033871;28;20521;-71
2022/09/12 03:38:13;;;;;;;14.60;9.60;;;12.20;99.90;;;;;;5034352;28;20501;-72
2022/09/12 03:40:39;;;;;;;17.53;10.17;;;12.20;99.90;;;;;;5034246;28;20446;-72
2022/09/12 03:43:06;;;;;;;18.23;8.87;;;12.10;99.90;;;;;;5033961;28;20179;-71
2022/09/12 03:45:32;;;;;;;17.93;9.73;;;12.10;99.90;;;;;;5033646;28;20454;-72
2022/09/12 03:47:58;;;;;;;12.93;9.07;;;12.10;99.90;;;;;;5034372;28;20774;-72
2022/09/12 03:50:24;;;;;;;17.67;8.73;;;12.10;99.90;;;;;;5033902;28;20426;-72
2022/09/12 03:52:49;;;;;;;22.53;12.67;;;12.10;99.90;;;;;;5033973;28;20225;-72
2022/09/12 03:55:15;;;;;;;23.90;12.97;;;12.10;99.90;;;;;;5033675;28;20187;-72
2022/09/12 03:57:40;;;;;;;15.10;9.60;;;12.10;99.90;;;;;;5034127;28;20167;-72
2022/09/12 04:00:07;;;;;;;16.17;9.90;;;12.10;99.90;;;;;;5033893;28;20247;-72
2022/09/12 04:02:34;;;;;;;15.80;10.00;;;12.20;99.90;;;;;;5032573;28;20179;-72
2022/09/12 04:04:59;;;;;;;21.40;11.37;;;12.20;99.90;;;;;;5033345;28;20450;-72
2022/09/12 04:07:25;;;;;;;20.60;10.50;;;12.20;99.90;;;;;;5032473;28;20446;-72
2022/09/12 04:09:52;;;;;;;16.97;8.80;;;12.20;99.90;;;;;;5033661;28;20183;-72
2022/09/12 04:12:18;;;;;;;16.77;10.27;;;12.20;99.90;;;;;;5033684;28;20402;-72
2022/09/12 04:14:43;;;;;;;18.37;11.97;;;12.30;99.90;;;;;;5032916;28;20822;-72
2022/09/12 04:17:09;;;;;;;26.70;10.77;;;12.30;99.90;;;;;;5033338;28;20420;-72
2022/09/12 04:19:34;;;;;;;15.07;10.37;;;12.30;99.90;;;;;;5033391;28;20175;-72
2022/09/12 04:22:00;;;;;;;14.60;8.67;;;12.20;99.90;;;;;;5033514;28;20176;-72
2022/09/12 04:24:25;;;;;;;16.50;9.87;;;12.20;99.90;;;;;;5033075;28;20188;-72
2022/09/12 04:26:51;;;;;;;19.43;10.40;;;12.30;99.90;;;;;;5033299;28;20200;-72
2022/09/12 04:29:16;;;;;;;16.17;9.97;;;12.30;99.90;;;;;;5033257;28;20164;-72
2022/09/12 04:31:43;;;;;;;17.30;10.20;;;12.30;99.90;;;;;;5033162;28;20224;-72
2022/09/12 04:34:09;;;;;;;20.70;9.90;;;12.30;99.90;;;;;;5033301;28;20171;-72
2022/09/12 04:36:35;;;;;;;19.53;9.40;;;12.30;99.90;;;;;;5033620;28;20407;-72
2022/09/12 04:39:01;;;;;;;14.57;9.33;;;12.30;99.90;;;;;;5033717;28;20163;-72
2022/09/12 04:41:30;;;;;;;14.00;8.90;;;12.30;99.90;;;;;;5033651;28;20403;-72
2022/09/12 04:44:00;;;;;;;44.83;23.00;;;12.30;99.90;;;;;;5034317;28;20409;-72
2022/09/12 04:46:25;;;;;;;47.73;25.70;;;12.20;99.90;;;;;;5034941;28;20489;-72
2022/09/12 04:48:51;;;;;;;19.23;11.77;;;12.20;99.90;;;;;;5035283;28;20452;-72
2022/09/12 04:51:20;;;;;;;17.37;8.90;;;12.20;99.90;;;;;;5035526;28;20186;-71
2022/09/12 04:53:50;;;;;;;15.03;9.17;;;12.10;99.90;;;;;;5034616;28;20528;-72
2022/09/12 04:56:17;;;;;;;13.73;8.90;;;12.10;99.90;;;;;;5032438;28;20517;-72
2022/09/12 04:58:42;;;;;;;17.03;8.83;;;12.10;99.90;;;;;;5032753;28;20902;-71
2022/09/12 05:01:20;;;;;;;20.63;9.50;;;12.20;99.90;;;;;;5032742;28;20489;-72
2022/09/12 05:03:47;;;;;;;13.87;9.10;;;12.20;99.90;;;;;;5031448;28;20652;-72
2022/09/12 05:06:24;;;;;;;13.67;10.03;;;12.20;99.90;;;;;;5030945;28;20458;-72
2022/09/12 05:08:51;;;;;;;14.47;8.80;;;12.20;99.90;;;;;;5034665;28;20500;-72
2022/09/12 05:11:21;;;;;;;18.80;11.20;;;12.20;99.90;;;;;;5034095;28;20463;-72
2022/09/12 05:13:47;;;;;;;15.90;8.87;;;12.30;99.90;;;;;;5033776;28;20456;-72
2022/09/12 05:16:14;;;;;;;13.63;8.37;;;12.30;99.90;;;;;;5034994;28;20926;-72
2022/09/12 05:18:41;;;;;;;15.00;8.70;;;12.30;99.90;;;;;;5032457;28;20206;-72
2022/09/12 05:21:10;;;;;;;15.30;9.70;;;12.40;99.90;;;;;;5032355;28;20406;-72
2022/09/12 05:23:35;;;;;;;15.37;9.43;;;12.40;99.90;;;;;;5032329;28;20871;-72
2022/09/12 05:26:02;;;;;;;19.90;9.67;;;12.50;99.90;;;;;;5031907;28;20539;-72
2022/09/12 05:28:31;;;;;;;17.80;9.57;;;12.50;99.90;;;;;;5032333;28;20403;-72
2022/09/12 05:31:10;;;;;;;19.57;10.30;;;12.60;99.90;;;;;;5031017;28;20417;-72
2022/09/12 05:33:37;;;;;;;16.90;8.30;;;12.70;99.90;;;;;;5032185;28;20406;-72
2022/09/12 05:36:05;;;;;;;14.37;9.53;;;12.80;99.90;;;;;;5031335;28;20442;-72
2022/09/12 05:38:34;;;;;;;17.73;9.50;;;12.80;99.90;;;;;;5032762;28;20410;-72
2022/09/12 05:41:09;;;;;;;19.40;9.50;;;13.00;99.90;;;;;;5032241;28;20414;-71
2022/09/12 05:43:40;;;;;;;20.83;10.67;;;13.00;99.90;;;;;;5032228;28;20404;-71
2022/09/12 05:46:09;;;;;;;15.67;9.77;;;13.10;99.90;;;;;;5031721;28;20825;-71
2022/09/12 05:48:36;;;;;;;21.23;10.10;;;13.20;99.90;;;;;;5032350;28;20402;-71
2022/09/12 05:51:08;;;;;;;16.87;9.47;;;13.20;99.90;;;;;;5030891;28;20444;-71
2022/09/12 05:53:35;;;;;;;20.63;11.03;;;13.40;99.90;;;;;;5032225;28;20932;-71
2022/09/12 05:56:06;;;;;;;16.50;8.97;;;13.40;99.90;;;;;;5034034;28;21029;-71
2022/09/12 05:58:33;;;;;;;20.00;11.50;;;13.50;99.90;;;;;;5035018;28;20760;-72
2022/09/12 06:01:06;;;;;;;17.33;11.77;;;13.60;99.90;;;;;;5036454;28;20440;-71
2022/09/12 06:03:32;;;;;;;17.60;9.83;;;13.70;99.90;;;;;;5034438;28;20414;-72
2022/09/12 06:06:01;;;;;;;16.23;10.33;;;13.70;99.90;;;;;;5039399;28;20461;-72
2022/09/12 06:08:27;;;;;;;15.47;9.73;;;13.80;99.90;;;;;;5036163;28;20446;-72
2022/09/12 06:11:06;;;;;;;19.63;10.03;;;13.90;99.90;;;;;;5036678;28;20434;-72
2022/09/12 06:13:34;;;;;;;17.37;10.07;;;14.00;99.90;;;;;;5036475;28;20171;-72
2022/09/12 06:16:08;;;;;;;17.67;9.97;;;14.10;99.90;;;;;;5036079;28;20484;-72
2022/09/12 06:18:34;;;;;;;22.40;11.07;;;14.30;99.90;;;;;;5037274;28;20470;-71
2022/09/12 06:21:27;;;;;;;18.97;10.80;;;14.50;99.90;;;;;;5039502;28;20414;-72
2022/09/12 06:23:54;;;;;;;19.53;11.43;;;14.90;99.90;;;;;;5038351;28;20422;-72
2022/09/12 06:26:24;;;;;;;25.17;13.30;;;15.10;99.90;;;;;;5038242;28;20453;-72
2022/09/12 06:28:50;;;;;;;19.50;9.43;;;15.30;99.90;;;;;;5036634;28;20414;-72
2022/09/12 06:31:18;;;;;;;16.47;10.50;;;15.60;99.90;;;;;;5037192;28;20409;-73
2022/09/12 06:33:47;;;;;;;14.80;10.47;;;15.80;99.90;;;;;;5036201;28;20410;-71
2022/09/12 06:36:16;;;;;;;17.07;9.93;;;16.10;99.90;;;;;;5035224;28;20432;-72
2022/09/12 06:38:43;;;;;;;15.40;9.30;;;16.30;99.90;;;;;;5035394;28;20406;-72
2022/09/12 06:41:11;;;;;;;12.67;8.70;;;16.50;99.90;;;;;;5035528;28;20414;-72
2022/09/12 06:43:37;;;;;;;15.00;8.20;;;16.60;99.90;;;;;;5035537;28;20422;-72
2022/09/12 06:46:03;;;;;;;16.43;9.10;;;16.60;99.90;;;;;;5034795;28;20460;-71
2022/09/12 06:48:28;;;;;;;12.27;8.03;;;16.60;99.90;;;;;;5035272;28;20414;-72
2022/09/12 06:51:01;;;;;;;16.73;8.73;;;16.60;99.90;;;;;;5035072;28;20479;-72
2022/09/12 06:53:28;;;;;;;11.60;7.93;;;16.70;99.90;;;;;;5035248;28;20168;-71
2022/09/12 06:56:02;;;;;;;14.07;8.93;;;16.80;99.90;;;;;;5035037;28;20434;-72
2022/09/12 06:58:28;;;;;;;17.40;8.50;;;16.90;99.90;;;;;;5037918;28;20919;-72
2022/09/12 07:01:06;;;;;;;13.83;9.37;;;17.00;99.90;;;;;;5035778;28;20782;-73
2022/09/12 07:03:32;;;;;;;10.13;8.33;;;17.10;99.90;;;;;;5036691;28;20425;-72
2022/09/12 07:06:02;;;;;;;21.60;11.50;;;17.30;99.90;;;;;;5034694;28;20938;-72
2022/09/12 07:08:30;;;;;;;16.33;10.27;;;17.40;99.90;;;;;;5035679;28;20457;-72
2022/09/12 07:10:57;;;;;;;18.70;10.83;;;17.40;99.90;;;;;;5035596;28;20421;-72
2022/09/12 07:13:23;;;;;;;15.50;11.40;;;17.40;99.90;;;;;;5035413;28;20411;-71
2022/09/12 07:15:50;;;;;;;15.10;10.53;;;17.40;99.90;;;;;;5034234;28;20426;-72
2022/09/12 07:18:16;;;;;;;17.80;10.80;;;17.50;99.90;;;;;;5034569;28;20406;-71
2022/09/12 07:20:42;;;;;;;17.87;10.00;;;17.50;99.90;;;;;;5034685;28;20410;-72
2022/09/12 07:23:07;;;;;;;17.07;10.43;;;17.50;99.90;;;;;;5034594;28;20174;-72
2022/09/12 07:25:33;;;;;;;17.27;10.30;;;17.60;99.90;;;;;;5034077;28;20214;-72
2022/09/12 07:27:59;;;;;;;15.90;10.03;;;17.70;99.90;;;;;;5034451;28;20175;-72
2022/09/12 07:30:25;;;;;;;16.97;10.47;;;17.80;99.90;;;;;;5034377;28;20170;-72
2022/09/12 07:32:52;;;;;;;17.17;11.60;;;18.00;99.90;;;;;;5034546;28;20170;-72
2022/09/12 07:35:18;;;;;;;14.20;10.30;;;18.20;99.90;;;;;;5033988;28;20441;-72
2022/09/12 07:37:44;;;;;;;18.67;10.97;;;18.50;99.90;;;;;;5034320;28;20398;-71
2022/09/12 07:40:10;;;;;;;17.40;10.80;;;18.80;99.90;;;;;;5034278;28;20403;-71
2022/09/12 07:42:35;;;;;;;18.80;11.63;;;18.80;99.90;;;;;;5034228;28;20168;-72
2022/09/12 07:45:00;;;;;;;19.87;11.10;;;18.90;99.90;;;;;;5033769;28;20195;-72
2022/09/12 07:47:26;;;;;;;15.90;10.80;;;18.90;99.90;;;;;;5034043;28;20206;-72
2022/09/12 07:49:52;;;;;;;27.10;11.10;;;18.80;99.90;;;;;;5034450;28;20652;-72
2022/09/12 07:52:17;;;;;;;14.33;9.20;;;18.90;99.90;;;;;;5034994;28;20166;-72
2022/09/12 07:54:43;;;;;;;13.43;9.93;;;19.10;99.90;;;;;;5033723;28;20190;-71
2022/09/12 07:57:09;;;;;;;15.27;10.73;;;19.30;99.90;;;;;;5033960;28;20168;-71
2022/09/12 07:59:34;;;;;;;17.67;10.00;;;19.70;99.90;;;;;;5033913;28;20198;-72
2022/09/12 08:02:00;;;;;;;14.23;10.97;;;20.00;99.90;;;;;;5033809;28;20167;-72
2022/09/12 08:04:25;;;;;;;17.50;10.17;;;20.30;99.90;;;;;;5033383;28;20187;-72
2022/09/12 08:06:51;;;;;;;14.67;10.13;;;20.70;99.90;;;;;;5034389;28;20202;-72
2022/09/12 08:09:16;;;;;;;15.20;9.37;;;20.90;99.90;;;;;;5034580;28;20621;-72
2022/09/12 08:11:42;;;;;;;17.50;11.00;;;21.20;99.90;;;;;;5033684;28;20258;-72
2022/09/12 08:14:08;;;;;;;16.03;10.53;;;21.40;99.90;;;;;;5033342;28;20175;-72
2022/09/12 08:16:34;;;;;;;18.43;11.10;;;21.50;99.90;;;;;;5033264;28;20402;-72
2022/09/12 08:19:01;;;;;;;13.80;9.70;;;21.80;99.90;;;;;;5033504;28;20167;-72
2022/09/12 08:21:29;;;;;;;17.47;11.00;;;22.10;99.90;;;;;;5033865;28;20410;-71
2022/09/12 08:24:00;;;;;;;17.63;10.73;;;22.40;99.90;;;;;;5034076;28;20443;-70
2022/09/12 08:26:25;;;;;;;16.07;10.13;;;22.80;99.90;;;;;;5034024;28;20445;-70
2022/09/12 08:28:52;;;;;;;14.80;10.20;;;22.90;99.90;;;;;;5033105;28;20406;-70
2022/09/12 08:31:20;;;;;;;15.90;10.83;;;23.10;99.90;;;;;;5033756;28;20166;-72
2022/09/12 08:33:45;;;;;;;13.60;9.20;;;23.00;99.90;;;;;;5033316;28;20895;-72
2022/09/12 08:36:16;;;;;;;13.13;9.40;;;23.00;99.90;;;;;;5033489;28;20429;-72
2022/09/12 08:38:44;;;;;;;25.17;10.30;;;23.10;99.90;;;;;;5034143;28;20168;-71
2022/09/12 08:41:26;;;;;;;14.93;9.60;;;23.60;99.90;;;;;;5033555;28;20906;-73
2022/09/12 08:44:26;;;;;;;16.23;10.07;;;24.30;99.90;;;;;;5033569;28;20379;-72
2022/09/12 08:47:00;;;;;;;13.13;10.07;;;25.60;99.90;;;;;;5032337;28;20457;-72
2022/09/12 08:49:44;;;;;;;15.50;9.80;;;27.10;99.90;;;;;;5032140;28;20417;-72
2022/09/12 08:52:28;;;;;;;13.00;10.37;;;28.10;99.90;;;;;;5032950;28;20406;-71
2022/09/12 08:54:55;;;;;;;10.00;8.40;;;28.90;97.50;;;;;;5033302;28;20457;-71
2022/09/12 08:57:22;;;;;;;11.00;8.77;;;29.90;92.70;;;;;;5033602;28;20405;-72
2022/09/12 08:59:49;;;;;;;9.60;7.63;;;30.70;84.30;;;;;;5031909;28;20863;-71
2022/09/12 09:02:24;;;;;;;11.10;9.60;;;31.70;76.90;;;;;;5031322;28;20473;-72
2022/09/12 09:04:55;;;;;;;10.23;9.10;;;32.70;69.50;;;;;;5031772;28;21004;-72
2022/09/12 09:07:57;;;;;;;10.90;8.60;;;32.90;64.30;;;;;;5032278;28;20461;-71
2022/09/12 09:10:48;;;;;;;13.00;9.73;;;33.20;60.50;;;;;;5031045;28;20919;-72
2022/09/12 09:16:42;;;;;;;10.67;8.30;;;33.90;58.40;;;;;;5032401;28;20401;-72
2022/09/12 09:19:16;;;;;;;11.13;9.20;;;34.30;57.00;;;;;;5032166;28;20488;-72
2022/09/12 09:21:53;;;;;;;10.13;8.77;;;34.50;56.10;;;;;;5032178;28;20445;-72
2022/09/12 09:24:22;;;;;;;10.50;8.63;;;35.00;55.20;;;;;;5031379;28;20796;-72
2022/09/12 09:27:01;;;;;;;7.87;7.07;;;35.30;54.60;;;;;;5032177;28;20541;-72
2022/09/12 09:29:33;;;;;;;8.10;7.30;;;36.00;53.60;;;;;;5031680;28;20405;-72
2022/09/12 09:32:02;;;;;;;10.60;7.50;;;36.90;52.30;;;;;;5031671;28;20403;-72
2022/09/12 09:34:30;;;;;;;8.20;6.60;;;38.10;50.50;;;;;;5031590;28;20513;-72
2022/09/12 09:37:27;;;;;;;8.07;7.27;;;39.00;47.80;;;;;;5031913;28;20413;-73
2022/09/12 09:40:23;;;;;;;8.67;7.83;;;39.70;46.00;;;;;;5030431;28;20429;-72
2022/09/12 09:43:01;;;;;;;8.10;7.30;;;39.60;44.00;;;;;;5031839;28;20385;-73
2022/09/12 09:45:28;;;;;;;8.43;7.40;;;39.90;44.80;;;;;;5030252;28;20445;-73
2022/09/12 09:48:00;;;;;;;8.07;7.27;;;40.30;43.80;;;;;;5032175;28;20414;-72
2022/09/12 09:50:26;;;;;;;7.87;7.07;;;40.40;42.70;;;;;;5031791;28;20453;-73
2022/09/12 09:52:54;;;;;;;7.13;6.53;;;40.50;42.20;;;;;;5032148;28;20414;-73
2022/09/12 09:55:25;;;;;;;7.60;6.67;;;40.90;41.60;;;;;;5031908;28;20422;-73
2022/09/12 09:57:52;;;;;;;7.73;6.97;;;40.90;41.60;;;;;;5032081;28;20398;-73
2022/09/12 10:00:33;;;;;;;6.77;6.07;;;41.20;41.60;;;;;;5030801;28;20418;-72
2022/09/12 10:03:22;;;;;;;7.17;6.47;;;42.00;41.20;;;;;;5032199;28;20398;-71
2022/09/12 10:05:57;;;;;;;5.97;5.37;;;42.10;39.40;;;;;;5031653;28;20469;-73
2022/09/12 10:08:43;;;;;;;5.90;5.40;;;42.50;40.20;;;;;;5031962;28;20381;-73
2022/09/12 10:11:14;;;;;;;7.50;6.70;;;42.90;39.30;;;;;;5031266;28;20388;-71
2022/09/12 10:13:49;;;;;;;8.60;7.70;;;43.20;38.30;;;;;;5031735;28;20399;-72
2022/09/12 10:16:21;;;;;;;6.07;5.57;;;43.10;39.20;;;;;;5031429;28;20404;-71
2022/09/12 10:18:49;;;;;;;7.90;5.83;;;43.10;36.40;;;;;;5031300;28;20464;-71
2022/09/12 10:21:26;;;;;;;5.90;5.40;;;43.10;36.60;;;;;;5031567;28;20380;-71
2022/09/12 10:24:00;;;;;;;5.90;5.40;;;42.60;36.40;;;;;;5031605;28;20388;-71
2022/09/12 10:26:30;;;;;;;5.30;4.67;;;42.60;38.10;;;;;;5030517;28;20454;-72
2022/09/12 10:28:56;;;;;;;6.57;5.80;;;43.30;38.20;;;;;;5031447;28;20377;-72
2022/09/12 10:31:28;;;;;;;4.97;4.53;;;43.80;36.10;;;;;;5031031;28;20414;-72
2022/09/12 10:33:57;;;;;;;6.20;5.70;;;43.60;37.00;;;;;;5031364;28;20167;-72
2022/09/12 10:36:24;;;;;;;9.57;7.00;;;43.60;36.30;;;;;;5030760;28;20381;-72
2022/09/12 10:38:56;;;;;;;5.60;4.93;;;43.90;35.40;;;;;;5031651;28;20895;-72
2022/09/12 10:41:23;;;;;;;4.67;4.17;;;44.40;36.50;;;;;;5031198;28;20428;-72
2022/09/12 10:43:48;;;;;;;5.50;4.83;;;45.40;36.70;;;;;;5031547;28;20388;-72
2022/09/12 10:46:17;;;;;;;4.23;3.83;;;46.10;35.40;;;;;;5030813;28;20432;-72
2022/09/12 10:48:47;;;;;;;4.77;4.37;;;46.00;33.00;;;;;;5031030;28;20185;-72
2022/09/12 10:51:24;;;;;;;4.23;3.80;;;45.90;33.10;;;;;;5031039;28;20890;-72
2022/09/12 10:54:00;;;;;;;4.80;3.97;;;45.30;33.10;;;;;;5033578;28;20392;-72
2022/09/12 10:56:37;;;;;;;3.87;3.57;;;45.20;32.40;;;;;;5033832;28;20497;-73
2022/09/12 10:59:35;;;;;;;5.10;4.70;;;45.00;33.00;;;;;;5034823;28;20412;-72
2022/09/12 11:02:29;;;;;;;4.20;3.90;;;44.40;32.90;;;;;;5034753;28;20442;-72
2022/09/12 11:05:10;;;;;;;4.60;4.20;;;44.70;33.80;;;;;;5033720;28;20412;-73
2022/09/12 11:07:41;;;;;;;3.73;3.43;;;45.00;33.60;;;;;;5034371;28;20454;-72
2022/09/12 11:10:32;;;;;;;4.17;3.83;;;44.70;32.60;;;;;;5034369;28;20430;-72
2022/09/12 11:13:25;;;;;;;3.87;3.57;;;44.40;33.70;;;;;;5034044;28;20455;-72
2022/09/12 11:16:09;;;;;;;7.20;4.30;;;44.40;33.30;;;;;;5034195;28;20422;-72
2022/09/12 11:19:09;;;;;;;4.03;3.73;;;43.80;33.70;;;;;;5034334;28;20433;-72
2022/09/12 11:21:59;;;;;;;3.40;3.20;;;44.40;34.60;;;;;;5034388;28;20749;-72
2022/09/12 11:24:51;;;;;;;3.50;3.30;;;45.20;33.80;;;;;;5033829;28;20505;-72
2022/09/12 11:27:44;;;;;;;3.90;3.47;;;46.00;32.00;;;;;;5033977;28;20981;-73
2022/09/12 11:30:16;;;;;;;3.27;3.07;;;45.70;31.50;;;;;;5034316;28;20396;-72
2022/09/12 11:33:01;;;;;;;2.83;2.63;;;44.90;32.00;;;;;;5033900;28;20408;-73
2022/09/12 11:35:39;;;;;;;2.83;2.63;;;44.70;33.40;;;;;;5033830;28;20404;-73
2022/09/12 11:38:35;;;;;;;4.70;3.23;;;44.90;32.00;;;;;;5034010;28;20393;-73
2022/09/12 11:41:16;;;;;;;4.80;4.40;;;44.90;32.60;;;;;;5033978;28;20417;-73
2022/09/12 11:44:12;;;;;;;3.10;2.90;;;44.90;31.50;;;;;;5034166;28;20383;-73
2022/09/12 11:46:43;;;;;;;4.00;3.17;;;44.30;31.70;;;;;;5033728;28;20478;-73
2022/09/12 11:49:08;;;;;;;3.40;3.20;;;44.40;32.70;;;;;;5033715;28;20876;-73
2022/09/12 11:51:36;;;;;;;3.43;3.17;;;44.10;31.80;;;;;;5033467;28;20488;-73
2022/09/12 11:54:40;;;;;;;3.43;3.23;;;44.10;32.20;;;;;;5032257;28;20170;-73
2022/09/12 11:57:23;;;;;;;3.00;2.80;;;44.10;32.80;;;;;;5033568;28;20447;-71
2022/09/12 11:59:55;;;;;;;4.70;3.20;;;44.30;31.10;;;;;;5033723;28;20376;-71
2022/09/12 12:02:30;;;;;;;3.57;2.90;;;43.80;32.70;;;;;;5033508;28;20373;-72
2022/09/12 12:05:17;;;;;;;2.93;2.73;;;44.00;31.50;;;;;;5033283;28;20396;-72
2022/09/12 12:07:57;;;;;;;2.70;2.50;;;43.40;31.70;;;;;;5033776;28;20752;-73
2022/09/12 12:10:25;;;;;;;3.47;3.17;;;43.90;33.00;;;;;;5033358;28;20379;-72
2022/09/12 12:12:53;;;;;;;3.00;2.80;;;44.60;31.80;;;;;;5033354;28;20756;-72
2022/09/12 12:15:21;;;;;;;2.83;2.63;;;44.60;30.30;;;;;;5032957;28;20746;-73
2022/09/12 12:18:15;;;;;;;2.60;2.40;;;44.80;31.30;;;;;;5032094;28;20384;-72
2022/09/12 12:20:41;;;;;;;2.90;2.70;;;45.10;30.90;;;;;;5033230;28;20392;-72
2022/09/12 12:23:21;;;;;;;2.83;2.63;;;45.20;31.10;;;;;;5033181;28;20381;-72
2022/09/12 12:25:53;;;;;;;2.90;2.70;;;45.40;31.50;;;;;;5032916;28;20691;-73
2022/09/12 12:28:37;;;;;;;3.33;2.97;;;45.40;30.80;;;;;;5033009;28;20878;-72
2022/09/12 12:31:04;;;;;;;2.80;2.60;;;45.40;31.00;;;;;;5032593;28;20412;-72
2022/09/12 12:33:29;;;;;;;3.10;2.90;;;44.90;30.90;;;;;;5033011;28;20421;-72
2022/09/12 12:36:01;;;;;;;3.27;2.93;;;44.30;30.80;;;;;;5032632;28;20434;-72
2022/09/12 12:38:29;;;;;;;2.90;2.70;;;43.50;31.30;;;;;;5032572;28;20248;-73
2022/09/12 12:41:17;;;;;;;2.87;2.67;;;44.30;32.80;;;;;;5033047;28;20377;-72
2022/09/12 12:43:47;;;;;;;3.07;2.87;;;45.10;31.40;;;;;;5032750;28;20398;-73
2022/09/12 12:46:24;;;;;;;3.07;2.83;;;45.40;31.40;;;;;;5032375;28;20485;-72
2022/09/12 12:49:03;;;;;;;3.23;3.03;;;44.90;30.00;;;;;;5032597;28;20372;-72
2022/09/12 12:51:35;;;;;;;4.70;2.70;;;44.20;30.60;;;;;;5032386;28;20411;-72
2022/09/12 12:54:04;;;;;;;2.93;2.73;;;43.40;30.80;;;;;;5032583;28;20404;-72
2022/09/12 12:56:41;;;;;;;3.13;2.87;;;43.00;32.00;;;;;;5032315;28;20850;-74
2022/09/12 12:59:20;;;;;;;3.30;3.10;;;43.00;32.90;;;;;;5032428;28;20421;-73
2022/09/12 13:01:53;;;;;;;2.73;2.53;;;42.90;32.30;;;;;;5031376;28;20388;-72
2022/09/12 13:04:21;;;;;;;3.43;2.80;;;43.20;33.10;;;;;;5032106;28;20425;-72
2022/09/12 13:07:06;;;;;;;3.07;2.80;;;43.40;32.90;;;;;;5030944;28;20432;-72